| time (UTC) | temp C | wind direction | speed KPH | gust KPH | rain 1hr cm | rain 24hr cm | rain mn cm | humidity % | barometer mb |
| 20260906215744 | 26 | 183 | 17.7 | 35.4 | 0.00 | 0.00 | 0.00 | 20 | 1012.0 |
| 20260906213241 | 26 | 213 | 17.7 | 29.0 | 0.00 | 0.00 | 0.00 | 20 | 1012.2 |
| 20260906204741 | 26 | 198 | 19.3 | 30.6 | 0.00 | 0.00 | 0.00 | 21 | 1012.9 |
| 20260906202737 | 25 | 175 | 22.5 | 41.8 | 0.00 | 0.00 | 0.00 | 23 | 1012.9 |
| 20260906192733 | 25 | 142 | 8.0 | 16.1 | 0.00 | 0.00 | 0.00 | 22 | 1013.3 |
| 20260906191732 | 25 | 96 | 6.4 | 11.3 | 0.00 | 0.00 | 0.00 | 23 | 1013.4 |
| 20260906190730 | 25 | 63 | 4.8 | 16.1 | 0.00 | 0.00 | 0.00 | 22 | 1013.6 |
| 20260906180724 | 25 | 139 | 6.4 | 17.7 | 0.00 | 0.00 | 0.00 | 23 | 1015.4 |
| 20260906180225 | 24 | 149 | 6.4 | 16.1 | 0.00 | 0.00 | 0.00 | 23 | 1015.4 |
| 20260906174223 | 24 | 311 | 6.4 | 11.3 | 0.00 | 0.00 | 0.00 | 22 | 1015.5 |
| 20260906173219 | 23 | 57 | 4.8 | 14.5 | 0.00 | 0.00 | 0.00 | 23 | 1015.8 |
| 20260906163713 | 21 | 36 | 4.8 | 12.9 | 0.00 | 0.00 | 0.00 | 26 | 1016.3 |
| 20260906162713 | 20 | 18 | 3.2 | 9.7 | 0.00 | 0.00 | 0.00 | 28 | 1016.4 |
| 20260906151212 | 15 | 331 | 3.2 | 8.0 | 0.00 | 0.00 | 0.00 | 43 | 1017.0 |
| 20260906150005 | 15 | 313 | 1.6 | 8.0 | 0.00 | 0.00 | 0.00 | 44 | 1016.9 |
| 20260906140712 | 11 | 57 | 3.2 | 8.0 | 0.00 | 0.00 | 0.00 | 53 | 1016.9 |
| 20260906133213 | 10 | 281 | 3.2 | 11.3 | 0.00 | 0.00 | 0.00 | 55 | 1016.6 |
| 20260906130006 | 8 | 318 | 3.2 | 6.4 | 0.00 | 0.00 | 0.00 | 58 | 1016.4 |
| 20260906123714 | 8 | 318 | 3.2 | 6.4 | 0.00 | 0.00 | 0.00 | 59 | 1016.3 |
| 20260906122711 | 8 | 318 | 3.2 | 6.4 | 0.00 | 0.00 | 0.00 | 58 | 1016.3 |
| 20260906113212 | 10 | 283 | 1.6 | 6.4 | 0.00 | 0.00 | 0.00 | 55 | 1016.4 |
| 20260906112214 | 10 | 283 | 1.6 | 6.4 | 0.00 | 0.00 | 0.00 | 56 | 1016.5 |
| 20260906111713 | 9 | 283 | 3.2 | 8.0 | 0.00 | 0.00 | 0.00 | 56 | 1016.4 |
| 20260906104159 | 11 | 340 | 6.4 | 11.3 | 0.00 | 0.00 | 0.00 | 49 | 1016.0 |
| 20260906102701 | 11 | 346 | 6.4 | 11.3 | 0.00 | 0.00 | 0.00 | 48 | 1016.1 |
| 20260906100157 | 11 | 346 | 4.8 | 8.0 | 0.00 | 0.00 | 0.00 | 48 | 1015.8 |
| 20260906094153 | 12 | 328 | 1.6 | 6.4 | 0.00 | 0.00 | 0.00 | 48 | 1015.7 |
| 20260906093654 | 12 | 328 | 1.6 | 6.4 | 0.00 | 0.00 | 0.00 | 47 | 1015.5 |
| 20260906085647 | 12 | 328 | 0.0 | 3.2 | 0.00 | 0.00 | 0.00 | 48 | 1015.3 |
| 20260906081142 | 12 | 344 | 1.6 | 6.4 | 0.00 | 0.00 | 0.00 | 44 | 1015.3 |
| 20260906080643 | 13 | 344 | 1.6 | 6.4 | 0.00 | 0.00 | 0.00 | 43 | 1015.3 |
| 20260906073140 | 15 | 305 | 0.0 | 3.2 | 0.00 | 0.00 | 0.00 | 40 | 1015.3 |
| 20260906064141 | 16 | 149 | 1.6 | 6.4 | 0.00 | 0.00 | 0.00 | 37 | 1015.2 |
| 20260906063642 | 17 | 151 | 1.6 | 6.4 | 0.00 | 0.00 | 0.00 | 36 | 1015.2 |
| 20260906062140 | 17 | 158 | 0.0 | 3.2 | 0.00 | 0.00 | 0.00 | 35 | 1015.2 |
| 20260906045642 | 19 | 209 | 8.0 | 14.5 | 0.00 | 0.00 | 0.00 | 29 | 1015.1 |
| 20260906044139 | 20 | 219 | 9.7 | 16.1 | 0.00 | 0.00 | 0.00 | 28 | 1015.2 |
| 20260906043640 | 20 | 206 | 9.7 | 14.5 | 0.00 | 0.00 | 0.00 | 28 | 1015.2 |
| 20260906042141 | 21 | 178 | 11.3 | 17.7 | 0.00 | 0.00 | 0.00 | 27 | 1015.2 |
| 20260906033140 | 20 | 173 | 1.6 | 8.0 | 0.00 | 0.00 | 0.00 | 29 | 1014.9 |
| 20260906023142 | 22 | 187 | 8.0 | 11.3 | 0.00 | 0.00 | 0.00 | 26 | 1014.5 |
| 20260906015645 | 23 | 167 | 11.3 | 19.3 | 0.00 | 0.00 | 0.00 | 24 | 1014.2 |
| 20260906013643 | 24 | 190 | 16.1 | 29.0 | 0.00 | 0.00 | 0.00 | 22 | 1014.1 |
| 20260906001139 | 27 | 173 | 17.7 | 32.2 | 0.00 | 0.00 | 0.00 | 19 | 1013.9 |
| 20260905234141 | 27 | 153 | 14.5 | 29.0 | 0.00 | 0.00 | 0.00 | 18 | 1013.7 |
| 20260905233640 | 27 | 189 | 12.9 | 29.0 | 0.00 | 0.00 | 0.00 | 18 | 1013.7 |
| 20260905230619 | 27 | 148 | 12.9 | 29.0 | 0.00 | 0.00 | 0.00 | 19 | 1014.0 |